Time;durP1;ratioP1;P1;durP2;ratioP2;P2;SDS_P1;SDS_P2;PMS_P1;PMS_P2;Temp;Humidity;BMP_temperature;BMP_pressure;BME280_temperature;BME280_humidity;BME280_pressure;Samples;Min_cycle;Max_cycle;Signal;HPM_P1;HPM_P2
2022/04/06 00:00:01;;;;;;;;;;;15.80;74.90;;;;;;5186836;28;20282;-38
2022/04/06 00:02:32;;;;;;;;;;;15.80;74.90;;;;;;5186953;28;19921;-39
2022/04/06 00:05:04;;;;;;;;;;;15.80;74.90;;;;;;5187284;28;19922;-38
2022/04/06 00:07:35;;;;;;;;;;;15.80;74.90;;;;;;5187312;28;20016;-39
2022/04/06 00:10:07;;;;;;;;;;;15.80;74.80;;;;;;5187221;28;19922;-38
2022/04/06 00:12:39;;;;;;;;;;;15.80;74.80;;;;;;5169636;28;19976;-39
2022/04/06 00:15:10;;;;;;;;;;;15.80;74.80;;;;;;5169518;28;19925;-40
2022/04/06 00:17:41;;;;;;;;;;;15.80;74.80;;;;;;5187139;28;19921;-39
2022/04/06 00:20:12;;;;;;;;;;;15.80;74.80;;;;;;5187148;28;20381;-39
2022/04/06 00:22:43;;;;;;;;;;;15.80;74.80;;;;;;5169618;28;19921;-39
2022/04/06 00:25:14;;;;;;;;;;;15.80;74.90;;;;;;5187086;28;19948;-38
2022/04/06 00:27:45;;;;;;;;;;;15.80;74.90;;;;;;5187044;28;20437;-39
2022/04/06 00:30:16;;;;;;;;;;;15.80;75.00;;;;;;5186988;28;19921;-39
2022/04/06 00:32:47;;;;;;;;;;;15.80;75.20;;;;;;5187046;28;19929;-39
2022/04/06 00:35:31;;;;;;;;;;;15.80;75.30;;;;;;5186887;28;19944;-39
2022/04/06 00:38:02;;;;;;;;;;;15.80;75.50;;;;;;5186352;28;19976;-41
2022/04/06 00:40:33;;;;;;;;;;;15.70;75.50;;;;;;5186992;28;19923;-39
2022/04/06 00:43:05;;;;;;;;;;;15.70;75.60;;;;;;5186892;28;20283;-38
2022/04/06 00:45:38;;;;;;;;;;;15.70;75.70;;;;;;5186711;28;19926;-39
2022/04/06 00:48:09;;;;;;;;;;;15.70;75.70;;;;;;5188537;28;20000;-39
2022/04/06 00:50:41;;;;;;;;;;;15.70;75.80;;;;;;5190536;28;19921;-38
2022/04/06 00:53:12;;;;;;;;;;;15.70;75.80;;;;;;5190312;28;19921;-39
2022/04/06 00:55:43;;;;;;;;;;;15.70;75.90;;;;;;5190730;28;19922;-39
2022/04/06 00:58:14;;;;;;;;;;;15.70;76.00;;;;;;5190232;28;19921;-39
2022/04/06 01:00:45;;;;;;;;;;;15.70;76.00;;;;;;5190388;28;19944;-38
2022/04/06 01:03:16;;;;;;;;;;;15.60;76.00;;;;;;5190626;28;19944;-39
2022/04/06 01:05:47;;;;;;;;;;;15.70;76.10;;;;;;5172790;28;19921;-39
2022/04/06 01:08:18;;;;;;;;;;;15.70;76.10;;;;;;5190262;28;19967;-38
2022/04/06 01:10:48;;;;;;;;;;;15.70;76.10;;;;;;5172636;28;19960;-39
2022/04/06 01:13:19;;;;;;;;;;;15.60;76.10;;;;;;5172444;28;20330;-39
2022/04/06 01:15:50;;;;;;;;;;;15.60;76.10;;;;;;5189821;28;19957;-39
2022/04/06 01:18:21;;;;;;;;;;;15.70;76.20;;;;;;5190006;28;19921;-39
2022/04/06 01:20:52;;;;;;;;;;;15.70;76.20;;;;;;5190016;28;19921;-39
2022/04/06 01:23:23;;;;;;;;;;;15.60;76.20;;;;;;5189850;28;19921;-39
2022/04/06 01:25:53;;;;;;;;;;;15.60;76.20;;;;;;5189915;28;19957;-39
2022/04/06 01:28:24;;;;;;;;;;;15.60;76.20;;;;;;5190191;28;19921;-39
2022/04/06 01:30:55;;;;;;;;;;;15.60;76.30;;;;;;5189797;28;20386;-39
2022/04/06 01:33:26;;;;;;;;;;;15.60;76.30;;;;;;5189795;28;20372;-39
2022/04/06 01:35:57;;;;;;;;;;;15.60;76.30;;;;;;5172133;28;19980;-39
2022/04/06 01:38:28;;;;;;;;;;;15.60;76.30;;;;;;5189364;28;20361;-39
2022/04/06 01:40:59;;;;;;;;;;;15.60;76.20;;;;;;5172123;28;19948;-39
2022/04/06 01:43:30;;;;;;;;;;;15.60;76.20;;;;;;5189505;28;19921;-39
2022/04/06 01:46:01;;;;;;;;;;;15.60;76.20;;;;;;5189740;28;20330;-39
2022/04/06 01:48:32;;;;;;;;;;;15.60;76.30;;;;;;5189384;28;19921;-39
2022/04/06 01:53:52;;;;;;;;;;;15.60;76.20;;;;;;5189359;28;19922;-39
2022/04/06 01:56:23;;;;;;;;;;;15.60;76.30;;;;;;5171745;28;19921;-39
2022/04/06 01:58:55;;;;;;;;;;;15.60;76.30;;;;;;5188561;28;19922;-39
2022/04/06 02:01:25;;;;;;;;;;;15.60;76.30;;;;;;5188903;28;19929;-39
2022/04/06 02:03:57;;;;;;;;;;;15.60;76.30;;;;;;5172132;28;20338;-38
2022/04/06 02:06:29;;;;;;;;;;;15.60;76.40;;;;;;5189140;28;19964;-39
2022/04/06 02:09:00;;;;;;;;;;;15.60;76.40;;;;;;5189046;28;19956;-39
2022/04/06 02:11:31;;;;;;;;;;;15.60;76.40;;;;;;5188901;28;19922;-39
2022/04/06 02:14:03;;;;;;;;;;;15.60;76.40;;;;;;5188952;28;19928;-39
2022/04/06 02:16:35;;;;;;;;;;;15.60;76.40;;;;;;5188958;28;19928;-39
2022/04/06 02:19:06;;;;;;;;;;;15.60;76.40;;;;;;5188825;28;19933;-39
2022/04/06 02:21:37;;;;;;;;;;;15.50;76.40;;;;;;5188451;28;19922;-39
2022/04/06 02:24:08;;;;;;;;;;;15.50;76.40;;;;;;5188747;28;20367;-39
2022/04/06 02:26:39;;;;;;;;;;;15.60;76.50;;;;;;5189187;28;19975;-39
2022/04/06 02:29:10;;;;;;;;;;;15.50;76.40;;;;;;5188502;28;19921;-39
2022/04/06 02:31:41;;;;;;;;;;;15.60;76.40;;;;;;5188829;28;19975;-39
2022/04/06 02:34:13;;;;;;;;;;;15.60;76.30;;;;;;5188513;28;19921;-39
2022/04/06 02:36:45;;;;;;;;;;;15.60;76.20;;;;;;5188660;28;19928;-39
2022/04/06 02:39:16;;;;;;;;;;;15.60;76.20;;;;;;5188537;28;19968;-40
2022/04/06 02:41:47;;;;;;;;;;;15.60;76.20;;;;;;5170957;28;19961;-39
2022/04/06 02:44:18;;;;;;;;;;;15.60;76.30;;;;;;5188464;28;20373;-39
2022/04/06 02:46:49;;;;;;;;;;;15.60;76.30;;;;;;5188314;28;19964;-38
2022/04/06 02:49:20;;;;;;;;;;;15.60;76.40;;;;;;5188234;28;19921;-39
2022/04/06 02:51:51;;;;;;;;;;;15.60;76.50;;;;;;5188272;28;20359;-39
2022/04/06 02:54:22;;;;;;;;;;;15.60;76.50;;;;;;5188188;28;20347;-39
2022/04/06 02:56:52;;;;;;;;;;;15.50;76.50;;;;;;5188189;28;19927;-39
2022/04/06 02:59:23;;;;;;;;;;;15.60;76.60;;;;;;5188037;28;19952;-39
2022/04/06 03:01:54;;;;;;;;;;;15.50;76.60;;;;;;5188128;28;19928;-39
2022/04/06 03:04:25;;;;;;;;;;;15.50;76.60;;;;;;5188041;28;19925;-39
2022/04/06 03:06:56;;;;;;;;;;;15.50;76.60;;;;;;5187825;28;20355;-39
2022/04/06 03:09:27;;;;;;;;;;;15.50;76.70;;;;;;5188282;28;19983;-39
2022/04/06 03:11:59;;;;;;;;;;;15.50;76.70;;;;;;5186702;28;19922;-39
2022/04/06 03:14:30;;;;;;;;;;;15.50;76.70;;;;;;5188481;28;20017;-39
2022/04/06 03:17:01;;;;;;;;;;;15.50;76.80;;;;;;5188469;28;20016;-39
2022/04/06 03:19:32;;;;;;;;;;;15.50;76.80;;;;;;5187765;28;19921;-39
2022/04/06 03:22:03;;;;;;;;;;;15.50;76.80;;;;;;5188001;28;20000;-39
2022/04/06 03:24:34;;;;;;;;;;;15.50;76.80;;;;;;5187433;28;19948;-39
2022/04/06 03:27:05;;;;;;;;;;;15.50;76.80;;;;;;5187436;28;19921;-39
2022/04/06 03:29:36;;;;;;;;;;;15.50;76.80;;;;;;5187772;28;19984;-39
2022/04/06 03:32:07;;;;;;;;;;;15.50;76.80;;;;;;5188249;28;19925;-39
2022/04/06 03:34:38;;;;;;;;;;;15.50;76.80;;;;;;5187394;28;19929;-39
2022/04/06 03:37:08;;;;;;;;;;;15.50;76.80;;;;;;5187158;28;19921;-39
2022/04/06 03:39:39;;;;;;;;;;;15.50;76.80;;;;;;5187281;28;19921;-39
2022/04/06 03:42:10;;;;;;;;;;;15.50;76.80;;;;;;5187751;28;19971;-40
2022/04/06 03:44:43;;;;;;;;;;;15.50;76.80;;;;;;5187454;28;19951;-39
2022/04/06 03:47:14;;;;;;;;;;;15.50;76.80;;;;;;5153433;28;20378;-39
2022/04/06 03:49:45;;;;;;;;;;;15.50;76.80;;;;;;5186753;28;19929;-39
2022/04/06 03:52:16;;;;;;;;;;;15.50;76.90;;;;;;5187163;28;19925;-37
2022/04/06 03:54:47;;;;;;;;;;;15.50;76.90;;;;;;5187767;28;19976;-38
2022/04/06 03:57:17;;;;;;;;;;;15.50;76.90;;;;;;5187356;28;19928;-40
2022/04/06 03:59:49;;;;;;;;;;;15.60;76.70;;;;;;5187119;28;19922;-39
2022/04/06 04:02:19;;;;;;;;;;;15.70;76.40;;;;;;5186969;28;19921;-42
2022/04/06 04:04:50;;;;;;;;;;;15.80;76.10;;;;;;5187284;28;19926;-38
2022/04/06 04:07:21;;;;;;;;;;;16.00;75.90;;;;;;5187287;28;19929;-38
2022/04/06 04:09:52;;;;;;;;;;;16.00;75.70;;;;;;5187562;28;19921;-38
2022/04/06 04:12:23;;;;;;;;;;;16.10;75.50;;;;;;5169506;28;20374;-38
2022/04/06 04:14:54;;;;;;;;;;;16.10;75.40;;;;;;5186364;28;19921;-39
2022/04/06 04:17:25;;;;;;;;;;;16.10;75.50;;;;;;5187001;28;19929;-38
2022/04/06 04:19:56;;;;;;;;;;;16.20;75.50;;;;;;5187114;28;19925;-36
2022/04/06 04:22:27;;;;;;;;;;;16.20;76.00;;;;;;5187671;28;19960;-36
2022/04/06 04:24:58;;;;;;;;;;;16.40;75.30;;;;;;5189915;28;19963;-41
2022/04/06 04:27:29;;;;;;;;;;;16.30;75.30;;;;;;5189797;28;19921;-37
2022/04/06 04:30:00;;;;;;;;;;;16.30;75.50;;;;;;5190795;28;19921;-37
2022/04/06 04:32:31;;;;;;;;;;;16.20;75.50;;;;;;5190896;28;19928;-37
2022/04/06 04:35:05;;;;;;;;;;;16.20;75.70;;;;;;5191134;28;19928;-36
2022/04/06 04:37:36;;;;;;;;;;;16.10;75.90;;;;;;5190549;28;19935;-37
2022/04/06 04:40:07;;;;;;;;;;;16.10;76.10;;;;;;5191423;28;19921;-37
2022/04/06 04:42:38;;;;;;;;;;;16.10;76.20;;;;;;5190796;28;19929;-39
2022/04/06 04:45:10;;;;;;;;;;;16.00;76.30;;;;;;5190671;28;19922;-37
2022/04/06 04:47:41;;;;;;;;;;;16.00;76.40;;;;;;5190572;28;19968;-37
2022/04/06 04:50:12;;;;;;;;;;;16.00;76.60;;;;;;5191071;28;20260;-37
2022/04/06 04:52:44;;;;;;;;;;;15.90;76.60;;;;;;5191013;28;19925;-37
2022/04/06 04:55:15;;;;;;;;;;;16.00;76.80;;;;;;5190562;28;20437;-39
2022/04/06 04:57:46;;;;;;;;;;;16.00;76.90;;;;;;5173066;28;20023;-37
2022/04/06 05:00:17;;;;;;;;;;;15.90;76.90;;;;;;5190233;28;19925;-37
2022/04/06 05:02:48;;;;;;;;;;;15.90;77.00;;;;;;5190419;28;19949;-38
2022/04/06 05:05:19;;;;;;;;;;;16.00;76.90;;;;;;5190687;28;20011;-37
2022/04/06 05:07:50;;;;;;;;;;;16.00;76.90;;;;;;5190289;28;19922;-39
2022/04/06 05:10:21;;;;;;;;;;;16.00;77.10;;;;;;5190190;28;19921;-37
2022/04/06 05:12:52;;;;;;;;;;;15.90;77.30;;;;;;5190229;28;20382;-37
2022/04/06 05:15:23;;;;;;;;;;;15.90;77.50;;;;;;5190385;28;19928;-37
2022/04/06 05:17:54;;;;;;;;;;;15.90;77.60;;;;;;5190027;28;20286;-39
2022/04/06 05:20:25;;;;;;;;;;;15.90;77.80;;;;;;5172369;28;20290;-38
2022/04/06 05:22:56;;;;;;;;;;;15.90;77.90;;;;;;5189775;28;19963;-40
2022/04/06 05:25:27;;;;;;;;;;;15.80;78.00;;;;;;5189827;28;19952;-40
2022/04/06 05:27:58;;;;;;;;;;;15.80;78.10;;;;;;5190079;28;20354;-40
2022/04/06 05:30:30;;;;;;;;;;;15.90;78.20;;;;;;5189817;28;19921;-39
2022/04/06 05:33:01;;;;;;;;;;;15.90;78.10;;;;;;5189815;28;19922;-36
2022/04/06 05:35:32;;;;;;;;;;;16.00;78.10;;;;;;5188610;28;19928;-36
2022/04/06 05:38:03;;;;;;;;;;;16.10;78.00;;;;;;5163632;28;19964;-36
2022/04/06 05:40:35;;;;;;;;;;;15.20;80.10;;;;;;5160435;28;19922;-37
2022/04/06 05:43:06;;;;;;;;;;;13.70;84.50;;;;;;5162707;28;20275;-38
2022/04/06 05:45:37;;;;;;;;;;;13.00;87.10;;;;;;5158477;28;19925;-37
2022/04/06 05:48:08;;;;;;;;;;;12.70;88.60;;;;;;5162014;28;19932;-38
2022/04/06 05:50:39;;;;;;;;;;;12.60;89.40;;;;;;5158615;28;20392;-36
2022/04/06 05:53:10;;;;;;;;;;;12.40;89.90;;;;;;5157130;28;19926;-36
2022/04/06 05:55:42;;;;;;;;;;;12.40;90.30;;;;;;5162726;28;19933;-37
2022/04/06 05:58:14;;;;;;;;;;;12.30;90.50;;;;;;5162781;28;19929;-37
2022/04/06 06:00:45;;;;;;;;;;;12.30;90.80;;;;;;5162628;28;20409;-36
2022/04/06 06:03:16;;;;;;;;;;;12.20;90.80;;;;;;5174728;28;19925;-38
2022/04/06 06:05:47;;;;;;;;;;;12.20;90.80;;;;;;5164481;28;20474;-37
2022/04/06 06:08:17;;;;;;;;;;;12.10;90.90;;;;;;5162565;28;20474;-37
2022/04/06 06:10:48;;;;;;;;;;;12.10;91.10;;;;;;5154009;28;19929;-37
2022/04/06 06:13:19;;;;;;;;;;;12.10;91.20;;;;;;5162462;28;20020;-37
2022/04/06 06:15:50;;;;;;;;;;;12.10;91.50;;;;;;5156739;28;20380;-37
2022/04/06 06:18:22;;;;;;;;;;;12.00;91.70;;;;;;5160703;28;19968;-38
2022/04/06 06:20:53;;;;;;;;;;;12.00;91.80;;;;;;5157580;28;19921;-37
2022/04/06 06:23:24;;;;;;;;;;;12.00;91.70;;;;;;5149222;28;19945;-38
2022/04/06 06:25:55;;;;;;;;;;;12.00;91.60;;;;;;5159678;28;19929;-38
2022/04/06 06:28:27;;;;;;;;;;;12.00;91.70;;;;;;5162103;28;20331;-38
2022/04/06 06:31:00;;;;;;;;;;;11.90;91.60;;;;;;5160074;28;20477;-38
2022/04/06 06:33:31;;;;;;;;;;;11.90;91.80;;;;;;5154483;28;19992;-39
2022/04/06 06:36:02;;;;;;;;;;;11.90;91.30;;;;;;5159619;28;20067;-39
2022/04/06 06:38:34;;;;;;;;;;;11.80;91.20;;;;;;5168533;28;19921;-38
2022/04/06 06:41:05;;;;;;;;;;;11.80;91.50;;;;;;5181897;28;19925;-39
2022/04/06 06:43:36;;;;;;;;;;;11.80;91.50;;;;;;5179890;28;19928;-38
2022/04/06 06:46:08;;;;;;;;;;;11.80;91.30;;;;;;5182584;28;20294;-39
2022/04/06 06:48:39;;;;;;;;;;;11.80;91.30;;;;;;5176698;28;19929;-36
2022/04/06 06:51:11;;;;;;;;;;;11.80;91.70;;;;;;5183854;28;20012;-36
2022/04/06 06:53:42;;;;;;;;;;;11.70;91.50;;;;;;5179211;28;19922;-36
2022/04/06 06:56:13;;;;;;;;;;;11.70;91.60;;;;;;5176866;28;20012;-37
2022/04/06 06:58:44;;;;;;;;;;;11.70;91.70;;;;;;5174285;28;19926;-38
2022/04/06 07:01:15;;;;;;;;;;;11.70;91.70;;;;;;5175574;28;19979;-37
2022/04/06 07:03:46;;;;;;;;;;;11.70;91.60;;;;;;5178125;28;19964;-37
2022/04/06 07:06:17;;;;;;;;;;;11.70;91.70;;;;;;5168248;28;19922;-36
2022/04/06 07:08:48;;;;;;;;;;;11.70;91.80;;;;;;5181646;28;19922;-36
2022/04/06 07:11:19;;;;;;;;;;;11.70;92.00;;;;;;5176038;28;19937;-36
2022/04/06 07:13:50;;;;;;;;;;;11.70;91.90;;;;;;5182020;28;19922;-36
2022/04/06 07:16:21;;;;;;;;;;;11.70;91.90;;;;;;5178125;28;19944;-38
2022/04/06 07:18:52;;;;;;;;;;;11.70;92.20;;;;;;5180941;28;19936;-37
2022/04/06 07:21:23;;;;;;;;;;;11.70;92.30;;;;;;5167563;28;19921;-36
2022/04/06 07:23:55;;;;;;;;;;;11.70;91.90;;;;;;5165444;28;19929;-37
2022/04/06 07:26:27;;;;;;;;;;;11.70;92.00;;;;;;5167596;28;19921;-36
2022/04/06 07:47:16;;;;;;;;;;;11.70;92.60;;;;;;5199990;28;20365;-36
2022/04/06 07:49:47;;;;;;;;;;;11.70;92.70;;;;;;5207813;28;19959;-35
2022/04/06 07:52:22;;;;;;;;;;;11.70;93.00;;;;;;5207756;28;19956;-35
2022/04/06 07:54:53;;;;;;;;;;;11.70;92.70;;;;;;5207717;28;19968;-35
2022/04/06 07:57:24;;;;;;;;;;;11.70;92.90;;;;;;5208629;28;19921;-35
2022/04/06 07:59:55;;;;;;;;;;;11.70;93.00;;;;;;5211996;28;19955;-35
2022/04/06 08:02:26;;;;;;;;;;;11.70;92.90;;;;;;5193330;28;20372;-36
2022/04/06 08:05:04;;;;;;;;;;;11.70;92.90;;;;;;5211859;28;20408;-36
2022/04/06 08:07:39;;;;;;;;;;;11.70;92.80;;;;;;5211914;28;20011;-35
2022/04/06 08:10:11;;;;;;;;;;;11.70;93.10;;;;;;5211924;28;19921;-36
2022/04/06 08:12:42;;;;;;;;;;;11.70;93.20;;;;;;5211757;28;19964;-34
2022/04/06 08:15:14;;;;;;;;;;;11.70;93.50;;;;;;5211685;28;19921;-35
2022/04/06 08:17:45;;;;;;;;;;;11.70;93.20;;;;;;5177715;28;19921;-34
2022/04/06 08:20:17;;;;;;;;;;;11.70;93.40;;;;;;5193787;28;20324;-35
2022/04/06 08:22:49;;;;;;;;;;;11.70;93.10;;;;;;5194026;28;19936;-35
2022/04/06 08:25:20;;;;;;;;;;;11.70;93.00;;;;;;5211453;28;19921;-34
2022/04/06 08:27:51;;;;;;;;;;;11.70;93.10;;;;;;5211549;28;19982;-34
2022/04/06 08:30:22;;;;;;;;;;;11.70;93.20;;;;;;5193799;28;19921;-34
2022/04/06 08:32:58;;;;;;;;;;;11.70;93.30;;;;;;5211395;28;19921;-34
2022/04/06 08:35:29;;;;;;;;;;;11.60;93.20;;;;;;5211521;28;19921;-35
2022/04/06 08:38:02;;;;;;;;;;;11.70;93.50;;;;;;5211441;28;20003;-34
2022/04/06 08:40:35;;;;;;;;;;;11.60;93.70;;;;;;5193368;28;19921;-34
2022/04/06 08:43:09;;;;;;;;;;;11.70;93.90;;;;;;5211100;28;19921;-34
2022/04/06 08:45:41;;;;;;;;;;;11.70;93.80;;;;;;5210338;28;20385;-34
2022/04/06 08:48:13;;;;;;;;;;;11.70;94.10;;;;;;5211102;28;19921;-34
2022/04/06 08:50:45;;;;;;;;;;;11.70;93.90;;;;;;5211112;28;19963;-36
2022/04/06 08:53:16;;;;;;;;;;;11.70;93.90;;;;;;5193312;28;20036;-35
2022/04/06 08:55:47;;;;;;;;;;;11.70;94.20;;;;;;5210936;28;20005;-34
2022/04/06 08:58:37;;;;;;;;;;;11.70;94.40;;;;;;5211104;28;19928;-36
2022/04/06 09:01:09;;;;;;;;;;;11.70;94.40;;;;;;5210921;28;19921;-35
2022/04/06 09:03:41;;;;;;;;;;;11.70;94.60;;;;;;5193503;28;19921;-35
2022/04/06 09:06:13;;;;;;;;;;;11.70;94.40;;;;;;5210858;28;19921;-36
2022/04/06 09:08:45;;;;;;;;;;;11.70;94.70;;;;;;5210633;28;20277;-35
2022/04/06 09:11:20;;;;;;;;;;;11.70;94.40;;;;;;5210564;28;20015;-37
2022/04/06 09:13:59;;;;;;;;;;;11.70;94.40;;;;;;5209904;28;19921;-35
2022/04/06 09:16:31;;;;;;;;;;;11.70;94.60;;;;;;5211391;28;19928;-36
2022/04/06 09:19:08;;;;;;;;;;;11.70;94.50;;;;;;5193130;28;19921;-35
2022/04/06 09:21:40;;;;;;;;;;;11.70;94.60;;;;;;5210738;28;20353;-35
2022/04/06 09:24:15;;;;;;;;;;;11.70;94.40;;;;;;5210498;28;19949;-36
2022/04/06 09:27:02;;;;;;;;;;;11.70;94.70;;;;;;5193315;28;20341;-34
2022/04/06 09:29:35;;;;;;;;;;;11.70;94.70;;;;;;5210231;28;19921;-36
2022/04/06 09:32:10;;;;;;;;;;;11.70;94.80;;;;;;5210256;28;19943;-35
2022/04/06 09:34:42;;;;;;;;;;;11.70;94.70;;;;;;5210287;28;19964;-36
2022/04/06 09:37:29;;;;;;;;;;;11.70;94.90;;;;;;5210531;28;19921;-35
2022/04/06 09:40:07;;;;;;;;;;;11.70;94.80;;;;;;5192270;28;19928;-35
2022/04/06 09:42:38;;;;;;;;;;;11.70;95.00;;;;;;5209789;28;19921;-36
2022/04/06 09:48:01;;;;;;;;;;;11.70;95.40;;;;;;5210005;28;19928;-35
2022/04/06 09:50:38;;;;;;;;;;;11.70;95.50;;;;;;5177740;28;19921;-35
2022/04/06 09:53:09;;;;;;;;;;;11.70;95.50;;;;;;5209884;28;19960;-36
2022/04/06 09:55:42;;;;;;;;;;;11.70;95.50;;;;;;5209862;28;20381;-35
2022/04/06 09:58:14;;;;;;;;;;;11.70;95.60;;;;;;5192714;28;19967;-35
2022/04/06 10:00:46;;;;;;;;;;;11.70;95.70;;;;;;5192118;28;19921;-36
2022/04/06 10:03:18;;;;;;;;;;;11.70;95.70;;;;;;5209730;28;20321;-35
2022/04/06 10:05:51;;;;;;;;;;;11.70;96.00;;;;;;5191947;28;19927;-35
2022/04/06 10:08:23;;;;;;;;;;;11.70;96.00;;;;;;5209323;28;19921;-36
2022/04/06 10:10:58;;;;;;;;;;;11.80;96.20;;;;;;5209539;28;19928;-35
2022/04/06 10:13:32;;;;;;;;;;;11.80;96.60;;;;;;5176770;28;19921;-36
2022/04/06 10:16:05;;;;;;;;;;;11.80;96.90;;;;;;5209176;28;20313;-36
2022/04/06 10:22:19;;;;;;;;;;;11.80;97.40;;;;;;5208636;28;19979;-36
2022/04/06 10:24:51;;;;;;;;;;;11.80;97.60;;;;;;5208998;28;19921;-35
2022/04/06 10:27:27;;;;;;;;;;;11.80;97.70;;;;;;5209300;28;19921;-34
2022/04/06 10:30:14;;;;;;;;;;;11.80;97.80;;;;;;5209309;28;20372;-35
2022/04/06 10:32:45;;;;;;;;;;;11.80;98.10;;;;;;5209146;28;20370;-35
2022/04/06 10:35:35;;;;;;;;;;;11.80;98.40;;;;;;5191252;28;20293;-35
2022/04/06 10:38:06;;;;;;;;;;;11.90;98.80;;;;;;5192536;28;19933;-36
2022/04/06 10:40:48;;;;;;;;;;;11.90;98.90;;;;;;5195214;28;19980;-35
2022/04/06 10:43:40;;;;;;;;;;;11.90;98.90;;;;;;5171846;28;19937;-35
2022/04/06 10:46:15;;;;;;;;;;;11.90;99.00;;;;;;5188549;28;20397;-36
2022/04/06 10:48:57;;;;;;;;;;;12.00;99.70;;;;;;5190837;28;19925;-37
2022/04/06 10:51:37;;;;;;;;;;;12.00;99.90;;;;;;5190134;28;19922;-36
2022/04/06 10:54:11;;;;;;;;;;;12.00;99.90;;;;;;5177188;28;19925;-37
2022/04/06 10:56:50;;;;;;;;;;;12.00;99.90;;;;;;5191952;28;20024;-37
2022/04/06 10:59:40;;;;;;;;;;;12.00;99.90;;;;;;5196875;28;19928;-37
2022/04/06 11:02:14;;;;;;;;;;;12.00;99.90;;;;;;5190006;28;20512;-37
2022/04/06 11:04:45;;;;;;;;;;;12.10;99.90;;;;;;5197522;28;19920;-37
2022/04/06 11:07:17;;;;;;;;;;;12.10;99.90;;;;;;5194297;28;19924;-37
2022/04/06 11:12:37;;;;;;;;;;;12.10;99.90;;;;;;5192503;28;19948;-37
2022/04/06 11:15:08;;;;;;;;;;;12.10;99.90;;;;;;5169426;28;20015;-36
2022/04/06 11:17:42;;;;;;;;;;;12.10;99.90;;;;;;5187643;28;19921;-37
2022/04/06 11:20:13;;;;;;;;;;;12.10;99.90;;;;;;5187629;28;20278;-37
2022/04/06 11:22:44;;;;;;;;;;;12.10;99.90;;;;;;5187930;28;19921;-37
2022/04/06 11:25:16;;;;;;;;;;;12.10;99.90;;;;;;5187735;28;20345;-38
2022/04/06 11:27:47;;;;;;;;;;;12.10;99.90;;;;;;5187733;28;19931;-36
2022/04/06 11:30:18;;;;;;;;;;;12.10;99.90;;;;;;5187653;28;19921;-36
2022/04/06 11:32:50;;;;;;;;;;;12.10;99.90;;;;;;5187016;28;19928;-36
2022/04/06 11:35:21;;;;;;;;;;;12.10;99.90;;;;;;5187547;28;19921;-36
2022/04/06 11:37:52;;;;;;;;;;;12.10;99.90;;;;;;5187273;28;20003;-36
2022/04/06 11:40:43;;;;;;;;;;;12.10;99.90;;;;;;5187591;28;19964;-36
2022/04/06 11:43:15;;;;;;;;;;;12.10;99.90;;;;;;5182947;28;19972;-36
2022/04/06 11:45:47;;;;;;;;;;;12.10;99.90;;;;;;5187529;28;20386;-37
2022/04/06 11:48:18;;;;;;;;;;;12.10;99.90;;;;;;5187360;28;20389;-37
2022/04/06 11:50:49;;;;;;;;;;;12.10;99.90;;;;;;5187950;28;19922;-37
2022/04/06 11:53:21;;;;;;;;;;;12.10;99.90;;;;;;5187146;28;19921;-37
2022/04/06 11:55:53;;;;;;;;;;;12.10;99.90;;;;;;5187466;28;19921;-37
2022/04/06 11:58:38;;;;;;;;;;;12.20;99.90;;;;;;5186889;28;19932;-36
2022/04/06 12:01:10;;;;;;;;;;;12.20;99.90;;;;;;5186737;28;19928;-36
2022/04/06 12:03:42;;;;;;;;;;;12.20;99.90;;;;;;5185685;28;19922;-36
2022/04/06 12:06:16;;;;;;;;;;;12.10;99.90;;;;;;5187317;28;19960;-38
2022/04/06 12:08:47;;;;;;;;;;;12.10;99.90;;;;;;5187302;28;19947;-37
2022/04/06 12:11:19;;;;;;;;;;;12.10;99.90;;;;;;5187237;28;19921;-36
2022/04/06 12:13:50;;;;;;;;;;;12.10;99.90;;;;;;5186975;28;19926;-37
2022/04/06 12:16:24;;;;;;;;;;;12.20;99.90;;;;;;5186971;28;19928;-37
2022/04/06 12:18:58;;;;;;;;;;;12.10;99.90;;;;;;5187172;28;20401;-37
2022/04/06 12:21:30;;;;;;;;;;;12.10;99.90;;;;;;5185969;28;19921;-37
2022/04/06 12:24:01;;;;;;;;;;;12.20;99.90;;;;;;5187179;28;19927;-36
2022/04/06 12:26:58;;;;;;;;;;;12.20;99.90;;;;;;5187200;28;20008;-36
2022/04/06 12:29:31;;;;;;;;;;;12.20;99.90;;;;;;5184070;28;20010;-37
2022/04/06 12:32:03;;;;;;;;;;;12.20;99.90;;;;;;5185825;28;20297;-37
2022/04/06 12:34:35;;;;;;;;;;;12.20;99.90;;;;;;5152383;28;19921;-36
2022/04/06 12:40:23;;;;;;;;;;;12.20;99.90;;;;;;5186409;28;19921;-35
2022/04/06 12:43:24;;;;;;;;;;;12.20;99.90;;;;;;5186285;28;19921;-36
2022/04/06 12:45:55;;;;;;;;;;;12.50;99.90;;;;;;5190398;28;19925;-36
2022/04/06 12:48:26;;;;;;;;;;;12.90;99.90;;;;;;5190912;28;19921;-37
2022/04/06 12:50:57;;;;;;;;;;;13.20;99.90;;;;;;5190369;28;19927;-36
2022/04/06 12:53:28;;;;;;;;;;;13.50;99.90;;;;;;5190781;28;19956;-37
2022/04/06 12:56:09;;;;;;;;;;;13.70;99.90;;;;;;5190641;28;19968;-37
2022/04/06 12:58:40;;;;;;;;;;;13.90;99.90;;;;;;5191160;28;20013;-36
2022/04/06 13:01:11;;;;;;;;;;;14.10;99.90;;;;;;5209404;28;20302;-37
2022/04/06 13:03:42;;;;;;;;;;;14.20;99.90;;;;;;5210134;28;20423;-37
2022/04/06 13:09:33;;;;;;;;;;;14.40;99.90;;;;;;5130225;28;19922;-37
2022/04/06 13:12:04;;;;;;;;;;;14.40;99.90;;;;;;5146761;28;19929;-38
2022/04/06 13:14:35;;;;;;;;;;;14.50;99.90;;;;;;5147280;28;19949;-38
2022/04/06 13:17:06;;;;;;;;;;;14.50;99.90;;;;;;5147667;28;20022;-38
2022/04/06 13:19:37;;;;;;;;;;;14.60;99.90;;;;;;5147509;28;19951;-37
2022/04/06 13:22:11;;;;;;;;;;;14.70;99.90;;;;;;5147754;28;19926;-38
2022/04/06 13:24:42;;;;;;;;;;;14.80;99.90;;;;;;5147408;28;20481;-37
2022/04/06 13:27:13;;;;;;;;;;;14.80;99.90;;;;;;5147557;28;19922;-37
2022/04/06 13:29:44;;;;;;;;;;;14.80;99.90;;;;;;5131286;28;19929;-37
2022/04/06 13:32:17;;;;;;;;;;;14.80;99.90;;;;;;5131259;28;20468;-37
2022/04/06 13:34:48;;;;;;;;;;;14.90;99.90;;;;;;5147245;28;20319;-37
2022/04/06 13:37:25;;;;;;;;;;;14.90;99.90;;;;;;5181601;28;20285;-37
2022/04/06 13:39:56;;;;;;;;;;;15.00;99.90;;;;;;5207701;28;20032;-37
2022/04/06 13:42:27;;;;;;;;;;;15.20;99.90;;;;;;5207688;28;20321;-37
2022/04/06 13:45:17;;;;;;;;;;;15.20;99.90;;;;;;5189363;28;19975;-38
2022/04/06 13:47:48;;;;;;;;;;;15.10;99.90;;;;;;5200711;28;20362;-40
2022/04/06 13:50:21;;;;;;;;;;;15.10;99.90;;;;;;5209725;28;19967;-37
2022/04/06 13:52:52;;;;;;;;;;;14.90;99.90;;;;;;5209781;28;19925;-40
2022/04/06 13:55:23;;;;;;;;;;;15.00;99.90;;;;;;5208701;28;20267;-39
2022/04/06 13:57:54;;;;;;;;;;;15.00;99.90;;;;;;5175705;28;20015;-39
2022/04/06 14:00:26;;;;;;;;;;;15.10;99.90;;;;;;5209479;28;20011;-38
2022/04/06 14:03:00;;;;;;;;;;;15.20;99.90;;;;;;5192477;28;19967;-36
2022/04/06 14:05:32;;;;;;;;;;;15.30;99.90;;;;;;5193167;28;19961;-42
2022/04/06 14:08:04;;;;;;;;;;;15.40;99.90;;;;;;5188218;28;20382;-37
2022/04/06 14:10:36;;;;;;;;;;;15.50;99.90;;;;;;5197230;28;19932;-37
2022/04/06 14:13:07;;;;;;;;;;;15.60;99.80;;;;;;5192427;28;20066;-38
2022/04/06 14:15:40;;;;;;;;;;;15.60;99.60;;;;;;5195179;28;19999;-43
2022/04/06 14:18:12;;;;;;;;;;;15.60;99.30;;;;;;5197116;28;19932;-39
2022/04/06 14:20:44;;;;;;;;;;;15.60;99.30;;;;;;5190390;28;19931;-38
2022/04/06 14:23:21;;;;;;;;;;;15.70;99.10;;;;;;5183091;28;20020;-38
2022/04/06 14:25:59;;;;;;;;;;;15.70;98.90;;;;;;5195489;28;20004;-39
2022/04/06 14:28:34;;;;;;;;;;;15.80;98.70;;;;;;5194946;28;19948;-37
2022/04/06 14:31:07;;;;;;;;;;;15.80;98.60;;;;;;5187082;28;20370;-38
2022/04/06 14:33:40;;;;;;;;;;;15.80;98.40;;;;;;5188561;28;19921;-37
2022/04/06 14:36:12;;;;;;;;;;;15.80;98.20;;;;;;5187907;28;20004;-38
2022/04/06 14:38:43;;;;;;;;;;;15.80;98.10;;;;;;5188155;28;19921;-39
2022/04/06 14:41:14;;;;;;;;;;;15.90;98.00;;;;;;5188105;28;19921;-38
2022/04/06 14:43:45;;;;;;;;;;;15.90;97.70;;;;;;5187393;28;19925;-42
2022/04/06 14:46:16;;;;;;;;;;;15.90;97.60;;;;;;5207119;28;19921;-39
2022/04/06 14:48:48;;;;;;;;;;;15.90;97.50;;;;;;5208290;28;20484;-38
2022/04/06 14:51:19;;;;;;;;;;;15.80;97.70;;;;;;5208246;28;20007;-40
2022/04/06 14:53:50;;;;;;;;;;;15.80;97.70;;;;;;5209011;28;19925;-37
2022/04/06 14:56:21;;;;;;;;;;;15.80;97.50;;;;;;5208474;28;20055;-41
2022/04/06 14:58:52;;;;;;;;;;;15.70;97.60;;;;;;5208262;28;19925;-39
2022/04/06 15:01:23;;;;;;;;;;;15.80;97.50;;;;;;5208292;28;19971;-38
2022/04/06 15:03:54;;;;;;;;;;;15.70;97.50;;;;;;5208197;28;19921;-38
2022/04/06 15:06:32;;;;;;;;;;;15.70;97.30;;;;;;5208409;28;20328;-38
2022/04/06 15:09:09;;;;;;;;;;;15.50;98.10;;;;;;5208103;28;20366;-39
2022/04/06 15:11:40;;;;;;;;;;;15.50;98.00;;;;;;5208110;28;19921;-42
2022/04/06 15:14:11;;;;;;;;;;;15.40;98.40;;;;;;5207964;28;20285;-40
2022/04/06 15:16:42;;;;;;;;;;;15.40;98.10;;;;;;5207804;28;19967;-38
2022/04/06 15:19:13;;;;;;;;;;;15.40;98.40;;;;;;5208062;28;20366;-40
2022/04/06 15:21:44;;;;;;;;;;;15.40;98.30;;;;;;5208147;28;19974;-38